Time;durP1;ratioP1;P1;durP2;ratioP2;P2;SDS_P1;SDS_P2;PMS_P1;PMS_P2;Temp;Humidity;BMP_temperature;BMP_pressure;BME280_temperature;BME280_humidity;BME280_pressure;Samples;Min_cycle;Max_cycle;Signal;HPM_P1;HPM_P2
2023/04/14 00:03:32;;;;;;;7.13;5.30;;;;;;;9.05;78.55;99445.91;10418973;28;20049;-72
2023/04/14 00:08:34;;;;;;;5.72;5.22;;;;;;;9.06;78.69;99438.78;10416050;28;20076;-73
2023/04/14 00:13:36;;;;;;;6.97;6.13;;;;;;;9.07;79.01;99451.06;10405233;28;20146;-71
2023/04/14 00:18:37;;;;;;;5.53;5.00;;;;;;;9.05;78.48;99456.50;10404607;28;20088;-71
2023/04/14 00:23:38;;;;;;;6.28;5.68;;;;;;;9.01;78.67;99466.56;10406060;28;20049;-72
2023/04/14 00:28:40;;;;;;;6.03;5.43;;;;;;;8.92;79.07;99450.63;10410744;28;20048;-73
2023/04/14 00:33:41;;;;;;;7.43;5.30;;;;;;;8.97;78.72;99459.00;10406393;28;20057;-71
2023/04/14 00:38:42;;;;;;;5.18;4.60;;;;;;;8.95;78.73;99459.13;10409592;28;20069;-69
2023/04/14 00:43:44;;;;;;;5.32;4.72;;;;;;;8.82;78.21;99456.69;10408616;28;20067;-73
2023/04/14 00:48:46;;;;;;;5.65;5.13;;;;;;;8.80;78.87;99441.91;10408600;28;20041;-72
2023/04/14 00:53:50;;;;;;;5.10;4.68;;;;;;;8.71;78.71;99427.59;10408581;28;20049;-72
2023/04/14 00:58:52;;;;;;;5.32;4.72;;;;;;;8.67;78.54;99431.47;10407734;28;20191;-68
2023/04/14 01:03:55;;;;;;;6.68;6.07;;;;;;;8.61;79.15;99434.66;10407349;28;20268;-69
2023/04/14 01:08:58;;;;;;;7.07;5.65;;;;;;;8.52;79.59;99441.59;10407744;28;20764;-72
2023/04/14 01:14:09;;;;;;;6.55;5.97;;;;;;;8.44;79.41;99439.59;10407662;28;20084;-70
2023/04/14 01:19:35;;;;;;;6.30;5.70;;;;;;;8.37;80.04;99434.91;10410391;28;20817;-67
2023/04/14 01:25:05;;;;;;;6.13;5.53;;;;;;;8.33;80.62;99447.56;10408736;28;20782;-67
2023/04/14 01:30:27;;;;;;;6.07;5.47;;;;;;;8.35;80.09;99447.44;10410701;28;20045;-72
2023/04/14 01:35:44;;;;;;;5.88;5.38;;;;;;;8.33;79.93;99450.22;10428319;28;20052;-70
2023/04/14 01:40:49;;;;;;;7.15;5.30;;;;;;;8.26;80.45;99449.06;10410172;28;20045;-74
2023/04/14 01:45:55;;;;;;;5.88;5.38;;;;;;;8.21;80.05;99451.25;10407578;28;20091;-70
2023/04/14 01:50:57;;;;;;;6.15;5.65;;;;;;;8.27;80.75;99461.34;10408031;28;20052;-70
2023/04/14 01:56:00;;;;;;;6.40;5.72;;;;;;;8.17;79.98;99457.75;10409928;28;20053;-71
2023/04/14 02:01:03;;;;;;;6.70;6.10;;;;;;;8.12;80.60;99450.19;10414275;28;20052;-71
2023/04/14 02:06:06;;;;;;;6.25;5.65;;;;;;;8.03;80.52;99449.19;10412142;28;20675;-70
2023/04/14 02:11:11;;;;;;;6.43;5.90;;;;;;;7.94;80.98;99457.84;10407996;28;20059;-70
2023/04/14 02:16:14;;;;;;;6.15;5.47;;;;;;;7.88;80.28;99453.06;10408943;28;20467;-70
2023/04/14 02:21:17;;;;;;;6.43;5.68;;;;;;;7.86;80.84;99453.19;10408566;28;20658;-70
2023/04/14 02:26:22;;;;;;;5.75;5.10;;;;;;;7.88;80.65;99461.88;10407223;28;20079;-74
2023/04/14 02:31:28;;;;;;;5.70;5.20;;;;;;;7.79;80.40;99474.06;10405782;28;20053;-72
2023/04/14 02:36:33;;;;;;;8.48;5.28;;;;;;;7.68;80.87;99487.31;10402265;28;20152;-69
2023/04/14 02:41:37;;;;;;;6.03;5.18;;;;;;;7.62;80.64;99493.13;10405446;28;20423;-73
2023/04/14 02:46:41;;;;;;;6.60;5.95;;;;;;;7.56;80.99;99490.97;10406024;28;20131;-72
2023/04/14 02:51:44;;;;;;;6.37;4.93;;;;;;;7.53;81.02;99488.56;10407357;28;20075;-72
2023/04/14 02:56:47;;;;;;;5.32;4.82;;;;;;;7.42;80.64;99492.06;10411490;28;20574;-75
2023/04/14 03:01:49;;;;;;;4.75;4.18;;;;;;;7.30;80.60;99498.34;10414494;28;20045;-72
2023/04/14 03:06:53;;;;;;;4.03;3.72;;;;;;;7.28;80.83;99500.25;10428140;28;20807;-69
2023/04/14 03:11:56;;;;;;;4.85;4.38;;;;;;;7.36;80.76;99500.50;10414016;28;20432;-72
2023/04/14 03:16:57;;;;;;;5.60;4.55;;;;;;;7.33;80.66;99503.41;10414222;28;20135;-73
2023/04/14 03:21:59;;;;;;;4.80;4.35;;;;;;;7.35;80.39;99490.88;10412670;28;20053;-73
2023/04/14 03:27:07;;;;;;;4.85;4.35;;;;;;;7.47;80.10;99499.66;10412908;28;20060;-72
2023/04/14 03:32:10;;;;;;;5.70;5.10;;;;;;;7.61;80.07;99488.78;10412808;28;20051;-71
2023/04/14 03:37:19;;;;;;;8.23;7.32;;;;;;;7.67;81.39;99496.25;10410429;28;20488;-68
2023/04/14 03:42:24;;;;;;;11.80;9.52;;;;;;;7.69;81.65;99488.19;10413397;28;20048;-69
2023/04/14 03:47:29;;;;;;;11.75;9.77;;;;;;;7.65;81.51;99484.91;10412490;28;20511;-71
2023/04/14 03:52:33;;;;;;;10.68;9.25;;;;;;;7.74;81.06;99486.81;10412410;28;20045;-72
2023/04/14 03:57:36;;;;;;;12.15;10.02;;;;;;;7.74;81.38;99486.81;10411227;28;20053;-73
2023/04/14 04:02:38;;;;;;;11.55;9.38;;;;;;;7.74;81.55;99494.78;10412296;28;20636;-70
2023/04/14 04:07:43;;;;;;;10.07;9.05;;;;;;;7.79;80.95;99497.03;10411623;28;20180;-71
2023/04/14 04:12:47;;;;;;;10.20;7.90;;;;;;;7.81;80.85;99496.91;10413504;28;20048;-71
2023/04/14 04:17:50;;;;;;;10.63;8.30;;;;;;;7.77;80.99;99497.16;10412888;28;20443;-70
2023/04/14 04:22:55;;;;;;;10.25;8.63;;;;;;;7.83;81.55;99510.91;10412766;28;20128;-72
2023/04/14 04:27:58;;;;;;;9.70;8.73;;;;;;;7.93;81.35;99512.69;10410760;28;20052;-74
2023/04/14 04:33:03;;;;;;;13.32;11.43;;;;;;;8.02;82.00;99521.69;10410980;28;20041;-70
2023/04/14 04:38:05;;;;;;;16.70;12.20;;;;;;;7.97;82.14;99529.16;10410240;28;20465;-71
2023/04/14 04:43:07;;;;;;;16.90;13.48;;;;;;;7.83;82.25;99526.81;10411678;28;20049;-70
2023/04/14 04:48:08;;;;;;;19.05;13.57;;;;;;;7.73;82.62;99516.09;10411300;28;20541;-73
2023/04/14 04:53:11;;;;;;;18.38;14.27;;;;;;;7.78;83.18;99535.94;10409101;28;20828;-70
2023/04/14 04:58:12;;;;;;;17.85;14.02;;;;;;;7.78;83.52;99540.44;10412058;28;20056;-72
2023/04/14 05:03:13;;;;;;;17.58;13.02;;;;;;;7.77;83.37;99534.25;10408871;28;20160;-70
2023/04/14 05:08:15;;;;;;;19.63;14.82;;;;;;;7.78;83.13;99514.75;10410168;28;20060;-72
2023/04/14 05:13:16;;;;;;;15.30;12.40;;;;;;;7.80;82.64;99538.47;10410369;28;20495;-71
2023/04/14 05:18:18;;;;;;;15.98;12.30;;;;;;;7.63;82.54;99531.91;10412779;28;20496;-71
2023/04/14 05:23:19;;;;;;;17.27;12.43;;;;;;;7.64;83.23;99538.88;10411917;28;20056;-74
2023/04/14 05:28:21;;;;;;;19.10;13.13;;;;;;;7.68;83.54;99537.66;10409281;28;20405;-72
2023/04/14 05:33:22;;;;;;;19.55;13.70;;;;;;;7.71;83.78;99534.75;10410389;28;20136;-70
2023/04/14 05:38:23;;;;;;;19.60;13.85;;;;;;;7.75;83.77;99544.16;10407055;28;20048;-71
2023/04/14 05:43:25;;;;;;;17.83;12.65;;;;;;;7.82;83.38;99541.00;10408681;28;20609;-73
2023/04/14 05:48:29;;;;;;;14.02;10.48;;;;;;;7.78;82.69;99541.25;10406199;28;20052;-70
2023/04/14 05:53:30;;;;;;;14.80;11.43;;;;;;;7.83;82.40;99540.88;10409854;28;20986;-72
2023/04/14 05:58:31;;;;;;;16.77;12.35;;;;;;;7.86;81.16;99555.69;10408387;28;20168;-71
2023/04/14 06:03:33;;;;;;;12.43;10.27;;;;;;;7.86;81.26;99558.34;10406334;28;20056;-73
2023/04/14 06:08:36;;;;;;;13.02;9.88;;;;;;;7.89;81.02;99542.19;10405652;28;20167;-74
2023/04/14 06:13:38;;;;;;;15.30;11.30;;;;;;;7.83;81.40;99555.94;10408262;28;20056;-73
2023/04/14 06:18:39;;;;;;;19.85;11.05;;;;;;;7.83;81.54;99558.59;10417875;28;20101;-76
2023/04/14 06:23:40;;;;;;;20.15;10.48;;;;;;;7.87;80.90;99544.97;10453183;28;20182;-71
2023/04/14 06:28:42;;;;;;;13.52;10.70;;;;;;;7.79;81.12;99550.91;10408880;28;20138;-71
2023/04/14 06:33:44;;;;;;;16.58;12.73;;;;;;;7.83;81.38;99550.66;10404266;28;21185;-70
2023/04/14 06:38:46;;;;;;;16.17;12.60;;;;;;;7.88;81.02;99556.41;10406157;28;20059;-72
2023/04/14 06:43:47;;;;;;;17.27;12.15;;;;;;;7.92;81.55;99549.91;10407654;28;20512;-73
2023/04/14 06:48:48;;;;;;;14.95;11.40;;;;;;;8.00;81.46;99555.44;10403865;28;20053;-68
2023/04/14 06:53:50;;;;;;;19.40;13.40;;;;;;;7.97;81.95;99551.22;10408028;28;20133;-69
2023/04/14 06:58:51;;;;;;;16.23;12.05;;;;;;;8.06;81.53;99565.53;10404419;28;20154;-70
2023/04/14 07:03:53;;;;;;;11.55;9.98;;;;;;;8.25;80.01;99564.03;10406046;28;20064;-72
2023/04/14 07:08:55;;;;;;;12.65;10.70;;;;;;;8.36;79.59;99571.97;10403043;28;20048;-73
2023/04/14 07:13:56;;;;;;;12.85;10.35;;;;;;;8.34;78.73;99555.31;10406271;28;20203;-68
2023/04/14 07:18:57;;;;;;;14.40;11.88;;;;;;;8.44;79.25;99585.47;10405486;28;20048;-69
2023/04/14 07:23:59;;;;;;;17.95;14.02;;;;;;;8.41;78.18;99575.06;10403900;28;20144;-70
2023/04/14 07:29:01;;;;;;;19.70;14.38;;;;;;;8.56;78.30;99577.47;10407650;28;20243;-69
2023/04/14 07:34:02;;;;;;;16.15;13.18;;;;;;;8.52;76.60;99576.88;10404710;28;20112;-71
2023/04/14 07:39:04;;;;;;;21.55;16.35;;;;;;;8.53;76.92;99589.16;10408959;28;20170;-72
2023/04/14 07:44:05;;;;;;;20.33;15.45;;;;;;;8.65;76.96;99582.00;10415315;28;20049;-72
2023/04/14 07:49:07;;;;;;;16.92;13.52;;;;;;;8.73;75.72;99566.28;10417800;28;20053;-68
2023/04/14 07:54:08;;;;;;;18.77;14.85;;;;;;;8.91;75.82;99555.91;10414877;28;20064;-72
2023/04/14 07:59:10;;;;;;;20.05;15.82;;;;;;;9.05;75.50;99556.56;10417134;28;20052;-72
2023/04/14 08:04:11;;;;;;;18.58;15.25;;;;;;;8.67;76.41;99558.84;10413162;28;20565;-72
2023/04/14 08:09:13;;;;;;;14.50;10.95;;;;;;;8.88;75.89;99550.88;10412979;28;20579;-67
2023/04/14 08:14:15;;;;;;;15.80;12.98;;;;;;;9.14;75.17;99558.44;10416930;28;20156;-71
2023/04/14 08:19:16;;;;;;;17.52;12.65;;;;;;;9.55;73.91;99554.84;10419918;28;20057;-72
2023/04/14 08:24:17;;;;;;;14.57;12.30;;;;;;;9.85;73.83;99552.31;10434302;28;20279;-72
2023/04/14 08:29:20;;;;;;;14.38;12.23;;;;;;;9.82;72.75;99534.81;10458948;28;20040;-69
2023/04/14 08:34:21;;;;;;;14.85;12.25;;;;;;;10.09;72.50;99546.63;10440518;28;20076;-71
2023/04/14 08:39:29;;;;;;;15.38;13.50;;;;;;;10.24;71.71;99547.88;10417859;28;20644;-69
2023/04/14 08:44:30;;;;;;;16.13;13.50;;;;;;;10.37;70.94;99545.00;10417076;28;20503;-72
2023/04/14 08:50:11;;;;;;;15.43;12.50;;;;;;;10.42;70.86;99544.56;10413655;28;20689;-70
2023/04/14 08:55:14;;;;;;;18.88;13.65;;;;;;;10.66;70.45;99537.97;10397303;28;20606;-70
2023/04/14 09:00:18;;;;;;;17.30;14.18;;;;;;;11.12;70.07;99526.53;10408460;28;20057;-69
2023/04/14 09:05:19;;;;;;;15.93;14.05;;;;;;;11.55;69.43;99529.59;10407701;28;20676;-68
2023/04/14 09:10:21;;;;;;;15.95;14.32;;;;;;;11.82;67.72;99525.25;10409304;28;20053;-67
2023/04/14 09:15:26;;;;;;;17.20;13.95;;;;;;;12.06;65.90;99521.22;10409413;28;20049;-69
2023/04/14 09:20:28;;;;;;;18.10;13.88;;;;;;;12.24;65.31;99523.88;10406205;28;20053;-71
2023/04/14 09:25:41;;;;;;;17.25;14.15;;;;;;;12.41;64.34;99522.19;10406003;28;20049;-70
2023/04/14 09:30:42;;;;;;;17.27;13.38;;;;;;;12.64;64.58;99510.06;10408016;28;20084;-69
2023/04/14 09:35:47;;;;;;;17.23;14.18;;;;;;;13.02;63.04;99518.66;10407325;28;20742;-71
2023/04/14 09:40:49;;;;;;;16.15;13.20;;;;;;;13.25;62.05;99499.41;10405015;28;20097;-73
2023/04/14 09:45:50;;;;;;;16.10;14.30;;;;;;;13.60;61.39;99506.47;10405458;28;20605;-75
2023/04/14 09:51:08;;;;;;;15.98;13.95;;;;;;;13.90;60.07;99506.03;10406103;28;20052;-74
2023/04/14 09:56:11;;;;;;;15.70;13.68;;;;;;;14.18;59.65;99495.91;10369909;28;1036352;-71
2023/04/14 10:01:15;;;;;;;18.38;14.65;;;;;;;14.60;57.62;99489.53;10406981;28;20198;-73
2023/04/14 10:06:19;;;;;;;16.33;13.65;;;;;;;14.95;56.46;99484.88;10406327;28;20163;-72
2023/04/14 10:11:21;;;;;;;15.53;13.23;;;;;;;15.34;55.04;99477.88;10406048;28;20048;-69
2023/04/14 10:16:24;;;;;;;19.42;13.65;;;;;;;16.14;52.84;99482.19;10406599;28;20068;-70
2023/04/14 10:21:26;;;;;;;14.50;12.50;;;;;;;18.25;46.70;99471.28;10405271;28;20147;-71
2023/04/14 10:26:28;;;;;;;13.43;10.50;;;;;;;22.24;37.44;99457.78;10407204;28;20063;-70
2023/04/14 10:31:33;;;;;;;11.13;9.98;;;;;;;23.89;33.52;99455.53;10408843;28;20055;-72
2023/04/14 10:36:36;;;;;;;10.70;9.70;;;;;;;22.56;34.84;99450.50;10408800;28;20067;-71
2023/04/14 10:41:48;;;;;;;11.35;9.50;;;;;;;20.98;38.41;99460.81;10409008;28;20064;-72
2023/04/14 10:46:50;;;;;;;13.07;9.73;;;;;;;21.31;37.92;99459.06;10413222;28;20049;-71
2023/04/14 10:51:52;;;;;;;13.30;8.00;;;;;;;25.10;31.13;99440.00;10406301;28;20618;-72
2023/04/14 10:57:13;;;;;;;10.77;7.50;;;;;;;28.05;26.05;99445.31;10407249;28;20052;-71
2023/04/14 11:02:29;;;;;;;9.05;6.07;;;;;;;29.19;23.35;99425.91;10405156;28;20482;-70
2023/04/14 11:07:45;;;;;;;7.70;6.05;;;;;;;30.13;22.68;99416.88;10403891;28;20057;-72
2023/04/14 11:12:53;;;;;;;9.48;5.97;;;;;;;31.51;23.29;99409.47;10402622;28;20490;-72
2023/04/14 11:18:09;;;;;;;7.78;6.13;;;;;;;31.40;20.94;99405.97;10424586;28;20180;-72
2023/04/14 11:23:12;;;;;;;7.75;6.75;;;;;;;32.16;20.00;99400.31;10412793;28;20041;-73
2023/04/14 11:28:14;;;;;;;6.70;4.70;;;;;;;32.91;18.73;99380.59;10413103;28;20055;-72
2023/04/14 11:33:15;;;;;;;7.35;5.22;;;;;;;32.50;20.29;99383.75;10412183;28;20582;-73
2023/04/14 11:38:17;;;;;;;5.30;3.35;;;;;;;33.62;17.86;99374.47;10413761;28;20150;-72
2023/04/14 11:43:20;;;;;;;9.23;5.00;;;;;;;33.99;17.57;99375.59;10413119;28;20056;-73
2023/04/14 11:48:23;;;;;;;5.75;3.50;;;;;;;34.31;16.87;99357.41;10412557;28;20056;-75
2023/04/14 11:53:25;;;;;;;7.18;3.33;;;;;;;34.41;16.28;99346.19;10411049;28;20064;-73
2023/04/14 11:58:27;;;;;;;5.18;2.83;;;;;;;34.87;16.05;99337.00;10412572;28;20577;-74
2023/04/14 12:03:31;;;;;;;6.43;3.00;;;;;;;35.05;15.43;99332.47;10410715;28;20474;-73
2023/04/14 12:08:33;;;;;;;4.13;2.58;;;;;;;33.46;16.14;99313.19;10410487;28;20068;-73
2023/04/14 12:13:40;;;;;;;5.95;3.17;;;;;;;27.29;21.01;99312.19;10408322;28;20930;-74
2023/04/14 12:18:43;;;;;;;5.82;2.63;;;;;;;28.63;18.52;99308.69;10410648;28;20132;-74
2023/04/14 12:23:48;;;;;;;6.10;2.38;;;;;;;26.47;21.12;99306.50;10415243;28;20064;-71
2023/04/14 12:28:56;;;;;;;4.63;2.05;;;;;;;24.84;23.01;99303.34;10409625;28;20040;-71
2023/04/14 12:33:59;;;;;;;3.63;2.05;;;;;;;24.21;22.49;99294.88;10410409;28;20055;-72
2023/04/14 12:39:05;;;;;;;4.97;1.85;;;;;;;23.58;25.17;99293.59;10410625;28;20045;-72
2023/04/14 12:44:18;;;;;;;5.88;2.47;;;;;;;22.56;25.84;99298.63;10409903;28;20515;-70
2023/04/14 12:49:37;;;;;;;17.27;12.35;;;;;;;22.50;25.99;99277.81;10405557;28;20064;-71
2023/04/14 12:54:51;;;;;;;12.38;9.93;;;;;;;22.16;25.86;99271.91;10409856;28;20067;-72
2023/04/14 12:59:52;;;;;;;3.63;2.45;;;;;;;21.34;26.10;99280.81;10410183;28;20041;-72
2023/04/14 13:04:54;;;;;;;5.28;2.20;;;;;;;20.57;27.33;99263.69;10409746;28;20053;-67
2023/04/14 13:09:56;;;;;;;7.77;3.70;;;;;;;20.21;28.26;99265.03;10410706;28;20045;-74
2023/04/14 13:14:58;;;;;;;5.57;3.10;;;;;;;19.70;28.95;99253.00;10409993;28;20169;-75
2023/04/14 13:19:59;;;;;;;5.20;2.40;;;;;;;19.32;29.42;99251.72;10409334;28;20052;-70
2023/04/14 13:25:01;;;;;;;3.53;2.45;;;;;;;19.41;30.95;99250.47;10411181;28;20136;-72
2023/04/14 13:30:03;;;;;;;4.75;2.40;;;;;;;19.18;29.11;99244.63;10407798;28;20190;-73
2023/04/14 13:35:05;;;;;;;5.53;2.40;;;;;;;19.36;29.81;99238.63;10409673;28;20554;-75
2023/04/14 13:40:07;;;;;;;4.70;2.50;;;;;;;19.30;29.75;99232.19;10424586;28;20470;-73
2023/04/14 13:45:09;;;;;;;6.00;2.10;;;;;;;19.36;29.52;99220.56;10408974;28;20045;-70
2023/04/14 13:50:11;;;;;;;5.72;2.70;;;;;;;19.69;30.16;99206.25;10408165;28;20085;-70
2023/04/14 13:55:13;;;;;;;4.75;2.20;;;;;;;19.60;28.76;99204.81;10409016;28;20053;-70
2023/04/14 14:00:15;;;;;;;4.50;2.03;;;;;;;19.50;27.67;99207.94;10407650;28;20437;-74
2023/04/14 14:05:16;;;;;;;3.47;1.92;;;;;;;19.29;27.71;99198.16;10407989;28;20053;-73
2023/04/14 14:10:18;;;;;;;4.72;2.30;;;;;;;19.16;29.21;99188.19;10406052;28;20319;-73
2023/04/14 14:15:19;;;;;;;3.80;2.03;;;;;;;18.89;27.97;99182.72;10409907;28;20138;-72
2023/04/14 14:20:20;;;;;;;3.55;2.60;;;;;;;18.77;28.96;99180.81;10409848;28;20127;-76
2023/04/14 14:25:22;;;;;;;3.85;1.80;;;;;;;18.69;27.72;99155.69;10415699;28;20116;-73
2023/04/14 14:30:23;;;;;;;13.57;2.22;;;;;;;18.73;29.25;99170.44;10426318;28;20393;-75
2023/04/14 14:35:25;;;;;;;4.07;1.83;;;;;;;18.51;28.83;99166.19;10429236;28;20107;-69
2023/04/14 14:40:27;;;;;;;3.60;1.80;;;;;;;18.43;29.57;99161.81;10410358;28;20049;-69
2023/04/14 14:45:29;;;;;;;5.68;2.28;;;;;;;18.27;30.44;99154.09;10408666;28;20151;-71
2023/04/14 14:50:32;;;;;;;4.27;1.90;;;;;;;18.10;29.63;99156.28;10403173;28;20045;-71
2023/04/14 14:55:33;;;;;;;4.03;1.50;;;;;;;18.07;30.16;99159.38;10406306;28;20056;-69
2023/04/14 15:00:35;;;;;;;4.43;2.20;;;;;;;17.92;30.61;99160.31;10406396;28;20128;-70
2023/04/14 15:05:37;;;;;;;3.97;2.15;;;;;;;17.59;30.03;99165.47;10413923;28;20111;-72
2023/04/14 15:10:39;;;;;;;4.10;1.88;;;;;;;17.48;29.72;99166.84;10403116;28;20340;-71
2023/04/14 15:15:41;;;;;;;4.32;2.58;;;;;;;17.31;29.93;99164.41;10409405;28;20049;-70
2023/04/14 15:20:42;;;;;;;3.85;1.75;;;;;;;17.10;30.66;99170.66;10406740;28;20053;-71
2023/04/14 15:25:44;;;;;;;3.05;1.52;;;;;;;17.00;30.63;99167.44;10405232;28;20065;-70
2023/04/14 15:30:45;;;;;;;3.58;1.50;;;;;;;16.90;30.62;99173.16;10407624;28;20055;-72
2023/04/14 15:35:47;;;;;;;2.38;1.15;;;;;;;16.80;31.12;99172.59;10407825;28;20132;-71
2023/04/14 15:40:48;;;;;;;4.05;2.40;;;;;;;16.68;31.30;99171.41;10404325;28;20045;-71
2023/04/14 15:45:50;;;;;;;5.15;1.40;;;;;;;16.52;32.03;99169.78;10405099;28;20057;-71
2023/04/14 15:50:51;;;;;;;3.13;1.77;;;;;;;16.39;32.35;99175.81;10403108;28;20053;-72
2023/04/14 15:55:53;;;;;;;2.47;1.45;;;;;;;16.33;32.73;99184.63;10404895;28;20096;-69
2023/04/14 16:00:54;;;;;;;3.10;1.20;;;;;;;16.20;33.39;99167.34;10403137;28;20053;-71
2023/04/14 16:06:02;;;;;;;4.03;1.55;;;;;;;16.21;34.32;99170.84;10411887;28;20060;-72
2023/04/14 16:11:04;;;;;;;4.25;1.95;;;;;;;16.06;34.52;99163.66;10410907;28;20076;-72
2023/04/14 16:16:05;;;;;;;3.00;1.25;;;;;;;15.93;34.59;99167.97;10411693;28;20139;-69
2023/04/14 16:21:07;;;;;;;4.55;1.42;;;;;;;15.74;33.60;99164.78;10410602;28;20128;-71
2023/04/14 16:26:09;;;;;;;3.15;1.23;;;;;;;15.62;33.37;99174.31;10410509;28;20268;-71
2023/04/14 16:31:10;;;;;;;2.65;1.10;;;;;;;15.50;34.34;99164.00;10408086;28;20416;-72
2023/04/14 16:36:12;;;;;;;3.03;1.27;;;;;;;15.44;34.39;99162.06;10411508;28;20048;-67
2023/04/14 16:41:13;;;;;;;2.75;0.80;;;;;;;15.43;34.39;99165.75;10406677;28;20049;-73
2023/04/14 16:46:15;;;;;;;2.72;1.08;;;;;;;15.41;35.04;99175.00;10410092;28;20072;-73
2023/04/14 16:51:16;;;;;;;4.28;1.00;;;;;;;15.39;35.71;99175.19;10410917;28;20136;-70
2023/04/14 16:56:19;;;;;;;2.55;0.60;;;;;;;15.36;34.90;99175.56;10407466;28;20529;-69
2023/04/14 17:01:20;;;;;;;2.15;0.88;;;;;;;15.29;35.33;99174.59;10410565;28;20063;-72
2023/04/14 17:06:22;;;;;;;2.80;1.05;;;;;;;15.27;35.53;99173.97;10397747;28;20380;-71
2023/04/14 17:11:24;;;;;;;1.70;0.98;;;;;;;15.21;35.21;99175.50;10408030;28;20742;-69
2023/04/14 17:16:26;;;;;;;1.92;1.00;;;;;;;15.11;35.54;99173.06;10406635;28;20223;-71
2023/04/14 17:21:27;;;;;;;4.63;1.10;;;;;;;15.05;35.38;99172.97;10408967;28;20049;-70
2023/04/14 17:26:29;;;;;;;1.80;0.77;;;;;;;15.03;35.18;99175.81;10409751;28;20379;-67
2023/04/14 17:31:30;;;;;;;2.10;0.88;;;;;;;14.95;35.24;99186.56;10410267;28;20049;-72
2023/04/14 17:36:32;;;;;;;5.13;2.47;;;;;;;14.88;35.92;99185.63;10409970;28;20096;-71
2023/04/14 17:41:34;;;;;;;5.55;3.90;;;;;;;14.79;37.50;99185.69;10410593;28;20088;-75
2023/04/14 17:46:35;;;;;;;5.10;2.63;;;;;;;14.68;36.84;99186.06;10409053;28;20278;-70
2023/04/14 17:51:37;;;;;;;5.25;3.47;;;;;;;14.58;36.52;99182.78;10407120;28;20060;-70
2023/04/14 17:56:38;;;;;;;3.53;1.60;;;;;;;14.48;37.17;99178.44;10407572;28;20110;-72
2023/04/14 18:01:40;;;;;;;4.40;1.88;;;;;;;14.47;37.15;99187.50;10408004;28;20079;-69
2023/04/14 18:06:42;;;;;;;3.20;1.42;;;;;;;14.34;38.07;99187.22;10407657;28;20059;-72
2023/04/14 18:11:43;;;;;;;2.75;1.70;;;;;;;14.16;38.19;99171.41;10406419;28;20057;-73
2023/04/14 18:16:44;;;;;;;2.47;1.70;;;;;;;14.08;38.82;99169.59;10407075;28;20127;-72
2023/04/14 18:21:47;;;;;;;2.20;1.45;;;;;;;14.05;39.24;99193.16;10405123;28;20049;-71
2023/04/14 18:26:50;;;;;;;1.98;1.60;;;;;;;13.93;39.15;99182.00;10405357;28;20450;-72
2023/04/14 18:31:51;;;;;;;3.08;1.52;;;;;;;13.88;39.04;99195.06;10403619;28;20136;-73
2023/04/14 18:36:53;;;;;;;5.45;2.65;;;;;;;13.84;39.68;99207.97;10405410;28;20048;-69
2023/04/14 18:41:54;;;;;;;4.43;3.28;;;;;;;13.75;40.18;99203.59;10403812;28;20275;-71
2023/04/14 18:46:55;;;;;;;5.03;2.85;;;;;;;13.69;40.69;99207.81;10403974;28;20088;-69
2023/04/14 18:51:57;;;;;;;4.43;3.13;;;;;;;13.62;41.07;99204.13;10406254;28;20053;-69
2023/04/14 18:56:59;;;;;;;4.40;2.58;;;;;;;13.52;41.74;99204.31;10405989;28;20045;-68
2023/04/14 19:02:01;;;;;;;5.40;3.80;;;;;;;13.50;41.80;99216.19;10405583;28;20491;-68
2023/04/14 19:07:02;;;;;;;5.82;3.28;;;;;;;13.46;41.89;99220.19;10400740;28;20056;-71
2023/04/14 19:12:04;;;;;;;4.80;3.22;;;;;;;13.36;41.76;99215.84;10404611;28;20539;-72
2023/04/14 19:17:07;;;;;;;5.07;3.08;;;;;;;13.29;42.07;99219.34;10407237;28;20049;-70
2023/04/14 19:22:08;;;;;;;4.03;2.97;;;;;;;13.22;42.48;99222.63;10405195;28;20136;-74
2023/04/14 19:27:10;;;;;;;6.18;3.17;;;;;;;13.14;42.47;99221.81;10412535;28;20093;-71
2023/04/14 19:32:11;;;;;;;5.97;3.40;;;;;;;13.08;43.07;99226.81;10403778;28;20622;-74
2023/04/14 19:37:13;;;;;;;5.03;3.10;;;;;;;12.96;42.13;99246.81;10408066;28;20057;-69
2023/04/14 19:42:15;;;;;;;5.10;4.20;;;;;;;12.85;42.71;99245.31;10417719;28;20064;-70
2023/04/14 19:47:16;;;;;;;5.25;3.78;;;;;;;12.86;43.10;99246.13;10422426;28;20123;-70
2023/04/14 19:52:17;;;;;;;5.93;3.97;;;;;;;12.79;44.39;99240.63;10414626;28;20057;-74
2023/04/14 19:57:20;;;;;;;4.03;3.30;;;;;;;12.72;45.23;99235.06;10409975;28;20574;-74
2023/04/14 20:02:22;;;;;;;4.32;2.53;;;;;;;12.66;45.64;99235.72;10410361;28;20067;-72
2023/04/14 20:07:30;;;;;;;3.17;2.30;;;;;;;12.62;45.69;99233.53;10410037;28;20570;-67
2023/04/14 20:12:33;;;;;;;2.67;2.38;;;;;;;12.55;46.35;99238.69;10408953;28;20049;-70
2023/04/14 20:17:35;;;;;;;3.50;2.17;;;;;;;12.51;46.40;99242.69;10411599;28;20051;-72
2023/04/14 20:22:39;;;;;;;3.53;2.17;;;;;;;12.42;46.57;99228.47;10410840;28;20318;-71
2023/04/14 20:27:41;;;;;;;;;;;;;;;12.43;47.78;99238.16;10411375;28;20154;-67
2023/04/14 20:32:42;;;;;;;4.85;2.22;;;;;;;12.36;48.01;99235.28;10413084;28;19925;-69
2023/04/14 20:37:43;;;;;;;5.78;3.00;;;;;;;12.30;48.13;99227.91;10415284;28;20048;-70
2023/04/14 20:42:45;;;;;;;3.13;2.00;;;;;;;12.28;47.96;99226.38;10447422;28;20036;-71
2023/04/14 20:47:47;;;;;;;8.40;6.47;;;;;;;12.22;48.29;99225.22;10426044;28;20041;-66
2023/04/14 20:52:49;;;;;;;14.80;11.50;;;;;;;12.17;48.88;99235.50;10415886;28;20123;-71
2023/04/14 20:57:51;;;;;;;11.20;10.02;;;;;;;12.11;49.73;99231.63;10412174;28;20051;-70
2023/04/14 21:02:53;;;;;;;6.03;5.15;;;;;;;12.11;50.57;99228.97;10410039;28;20056;-71
2023/04/14 21:07:55;;;;;;;6.70;4.97;;;;;;;12.01;50.56;99231.75;10406547;28;20570;-70
2023/04/14 21:12:57;;;;;;;6.68;5.05;;;;;;;11.96;50.72;99228.72;10409131;28;20052;-71
2023/04/14 21:18:20;;;;;;;6.18;4.28;;;;;;;11.94;50.38;99228.03;10412331;28;20130;-69
2023/04/14 21:23:21;;;;;;;4.47;3.72;;;;;;;12.04;51.10;99235.97;10411092;28;20569;-72
2023/04/14 21:28:23;;;;;;;4.63;4.15;;;;;;;11.82;51.13;99237.28;10412794;28;20276;-68
2023/04/14 21:33:25;;;;;;;5.00;3.60;;;;;;;11.73;51.66;99222.22;10407896;28;20092;-74
2023/04/14 21:38:27;;;;;;;5.07;4.35;;;;;;;11.77;51.83;99235.09;10406168;28;20049;-72
2023/04/14 21:43:28;;;;;;;6.20;3.58;;;;;;;11.66;51.52;99243.31;10406671;28;20605;-71
2023/04/14 21:48:30;;;;;;;4.22;2.88;;;;;;;11.57;51.27;99245.09;10405885;28;20053;-71
2023/04/14 21:53:31;;;;;;;6.30;3.70;;;;;;;11.55;50.79;99259.56;10405885;28;20446;-67
2023/04/14 21:58:32;;;;;;;4.07;3.53;;;;;;;11.45;50.89;99246.31;10406485;28;20053;-71
2023/04/14 22:03:36;;;;;;;5.10;3.65;;;;;;;11.47;50.67;99255.03;10406402;28;20045;-73
2023/04/14 22:08:39;;;;;;;5.97;3.47;;;;;;;11.47;50.63;99252.34;10407649;28;20063;-66
2023/04/14 22:13:41;;;;;;;4.30;3.25;;;;;;;11.44;51.18;99249.97;10406721;28;20724;-70
2023/04/14 22:18:42;;;;;;;7.00;3.78;;;;;;;11.45;51.56;99256.97;10405199;28;20048;-70
2023/04/14 22:23:44;;;;;;;4.45;3.85;;;;;;;11.36;51.64;99245.41;10404735;28;20045;-72
2023/04/14 22:28:45;;;;;;;4.35;3.95;;;;;;;11.40;52.45;99259.28;10407440;28;20118;-69
2023/04/14 22:33:47;;;;;;;4.40;3.80;;;;;;;11.32;53.20;99252.88;10405622;28;20398;-69
2023/04/14 22:38:48;;;;;;;4.63;4.07;;;;;;;11.21;53.34;99266.41;10406016;28;20539;-73
2023/04/14 22:43:50;;;;;;;5.55;3.60;;;;;;;11.12;53.54;99257.53;10405973;28;20056;-66
2023/04/14 22:48:51;;;;;;;4.38;3.63;;;;;;;11.09;53.22;99254.31;10403458;28;20053;-69
2023/04/14 22:53:52;;;;;;;4.40;2.85;;;;;;;11.08;53.09;99256.16;10406068;28;20053;-68
2023/04/14 22:58:57;;;;;;;4.68;2.30;;;;;;;11.05;53.09;99261.78;10406125;28;20055;-72
2023/04/14 23:03:59;;;;;;;5.10;2.50;;;;;;;11.01;53.32;99264.91;10405007;28;20072;-70
2023/04/14 23:09:00;;;;;;;2.33;2.13;;;;;;;10.98;53.66;99254.56;10403148;28;20358;-70
2023/04/14 23:14:03;;;;;;;4.90;2.60;;;;;;;10.94;53.68;99248.66;10409857;28;20053;-69
2023/04/14 23:19:05;;;;;;;2.97;2.50;;;;;;;10.90;53.48;99264.13;10414233;28;20060;-70
2023/04/14 23:24:09;;;;;;;3.78;2.38;;;;;;;10.87;53.50;99268.88;10411217;28;20167;-67
2023/04/14 23:29:10;;;;;;;5.43;2.10;;;;;;;10.93;54.12;99273.66;10414547;28;20052;-73